createdAt,value
2019-05-26T00:01:06.869Z,97798.84
2019-05-26T00:03:39.744Z,97798.70
2019-05-26T00:06:12.069Z,97795.63
2019-05-26T00:08:45.024Z,97799.41
2019-05-26T00:11:17.751Z,97790.22
2019-05-26T00:13:50.045Z,97795.22
2019-05-26T00:16:22.330Z,97798.78
2019-05-26T00:18:54.610Z,97802.17
2019-05-26T00:21:26.896Z,97806.61
2019-05-26T00:23:59.633Z,97800.73
2019-05-26T00:26:32.254Z,97794.52
2019-05-26T00:29:05.093Z,97789.39
2019-05-26T00:31:45.411Z,97781.55
2019-05-26T00:34:18.583Z,97778.94
2019-05-26T00:36:51.671Z,97780.88
2019-05-26T00:39:24.427Z,97785.22
2019-05-26T00:41:56.738Z,97787.31
2019-05-26T00:44:29.079Z,97785.22
2019-05-26T00:47:01.573Z,97780.11
2019-05-26T00:49:34.057Z,97778.17
2019-05-26T00:52:06.743Z,97774.77
2019-05-26T00:54:39.596Z,97775.30
2019-05-26T00:57:11.952Z,97775.03
2019-05-26T00:59:44.212Z,97767.75
2019-05-26T01:02:16.610Z,97770.84
2019-05-26T01:04:48.894Z,97763.81
2019-05-26T01:07:21.323Z,97756.95
2019-05-26T01:09:53.597Z,97755.67
2019-05-26T01:12:25.878Z,97757.45
2019-05-26T01:14:58.165Z,97762.73
2019-05-26T01:17:30.910Z,97761.23
2019-05-26T01:20:03.553Z,97767.48
2019-05-26T01:22:35.826Z,97766.69
2019-05-26T01:25:10.726Z,97767.62
2019-05-26T01:27:43.356Z,97774.97
2019-05-26T01:30:16.586Z,97777.26
2019-05-26T01:32:48.866Z,97782.51
2019-05-26T01:35:21.617Z,97784.34
2019-05-26T01:37:54.093Z,97782.83
2019-05-26T01:40:41.447Z,97778.94
2019-05-26T01:43:14.315Z,97779.17
2019-05-26T01:45:46.617Z,97785.47
2019-05-26T01:48:19.233Z,97792.55
2019-05-26T01:50:51.526Z,97787.08
2019-05-26T01:53:24.367Z,97783.98
2019-05-26T01:55:56.654Z,97778.09
2019-05-26T01:58:28.943Z,97779.00
2019-05-26T02:01:01.732Z,97781.02
2019-05-26T02:03:34.018Z,97779.94
2019-05-26T02:06:07.212Z,97784.47
2019-05-26T02:08:40.160Z,97789.16
2019-05-26T02:11:12.781Z,97793.27
2019-05-26T02:13:45.059Z,97789.20
2019-05-26T02:16:17.799Z,97790.97
2019-05-26T02:18:50.077Z,97790.20
2019-05-26T02:21:22.368Z,97792.55
2019-05-26T02:23:54.641Z,97789.17
2019-05-26T02:26:27.042Z,97792.20
2019-05-26T02:28:59.335Z,97799.70
2019-05-26T02:31:31.714Z,97800.75
2019-05-26T02:34:03.975Z,97799.75
2019-05-26T02:36:37.062Z,97795.34
2019-05-26T02:39:11.050Z,97794.84
2019-05-26T02:41:43.894Z,97804.41
2019-05-26T02:44:16.187Z,97797.41
2019-05-26T02:46:49.028Z,97797.22
2019-05-26T02:49:21.310Z,97798.15
2019-05-26T02:51:53.600Z,97794.83
2019-05-26T02:54:25.883Z,97797.06
2019-05-26T02:56:58.703Z,97797.34
2019-05-26T02:59:31.682Z,97795.58
2019-05-26T03:02:05.006Z,97798.56
2019-05-26T03:04:37.640Z,97796.88
2019-05-26T03:07:11.081Z,97793.66
2019-05-26T03:09:46.413Z,97791.30
2019-05-26T03:12:22.462Z,97790.72
2019-05-26T03:14:57.652Z,97783.86
2019-05-26T03:17:34.602Z,97787.76
2019-05-26T03:20:09.578Z,97785.06
2019-05-26T03:22:44.158Z,97791.64
2019-05-26T03:25:16.645Z,97790.28
2019-05-26T03:27:49.467Z,97790.92
2019-05-26T03:30:22.208Z,97794.42
2019-05-26T03:32:54.586Z,97802.97
2019-05-26T03:35:27.323Z,97800.67
2019-05-26T03:37:59.608Z,97802.36
2019-05-26T03:40:32.108Z,97806.15
2019-05-26T03:43:04.496Z,97806.30
2019-05-26T03:46:22.933Z,97806.06
2019-05-26T03:48:56.212Z,97802.53
2019-05-26T03:51:28.476Z,97800.84
2019-05-26T03:54:00.799Z,97804.27
2019-05-26T03:56:33.081Z,97799.52
2019-05-26T03:59:06.602Z,97801.27
2019-05-26T04:01:39.208Z,97808.47
2019-05-26T04:04:11.825Z,97808.76
2019-05-26T04:06:44.171Z,97811.17
2019-05-26T04:09:16.464Z,97811.87
2019-05-26T04:11:48.755Z,97810.14
2019-05-26T04:14:21.039Z,97807.80
2019-05-26T04:16:56.264Z,97804.83
2019-05-26T04:19:27.752Z,97802.98
2019-05-26T04:22:00.031Z,97808.80
2019-05-26T04:24:32.650Z,97806.89
2019-05-26T04:27:05.507Z,97809.73
2019-05-26T04:29:38.249Z,97818.20
2019-05-26T04:32:10.986Z,97821.61
2019-05-26T04:34:43.274Z,97821.47
2019-05-26T04:37:16.027Z,97824.88
2019-05-26T04:39:48.313Z,97821.50
2019-05-26T04:42:21.047Z,97823.55
2019-05-26T04:44:53.807Z,97822.22
2019-05-26T04:47:26.085Z,97823.59
2019-05-26T04:49:58.823Z,97825.69
2019-05-26T04:52:31.774Z,97832.66
2019-05-26T04:55:04.253Z,97830.05
2019-05-26T04:57:37.079Z,97825.86
2019-05-26T05:00:10.974Z,97829.70
2019-05-26T05:02:43.590Z,97829.79
2019-05-26T05:05:16.659Z,97830.82
2019-05-26T05:07:48.940Z,97835.95
2019-05-26T05:10:21.329Z,97836.72
2019-05-26T05:12:53.623Z,97838.16
2019-05-26T05:15:26.104Z,97836.44
2019-05-26T05:17:58.428Z,97835.63
2019-05-26T05:20:30.822Z,97837.13
2019-05-26T05:23:03.536Z,97829.06
2019-05-26T05:25:36.278Z,97834.38
2019-05-26T05:28:09.007Z,97839.11
2019-05-26T05:30:41.727Z,97844.29
2019-05-26T05:33:13.984Z,97845.27
2019-05-26T05:35:46.427Z,97843.78
2019-05-26T05:38:19.039Z,97844.53
2019-05-26T05:40:59.486Z,97846.57
2019-05-26T05:43:26.020Z,97846.12
2019-05-26T05:45:58.305Z,97844.59
2019-05-26T05:48:31.047Z,97841.34
2019-05-26T05:51:03.329Z,97838.05
2019-05-26T05:53:35.713Z,97833.88
2019-05-26T05:56:08.507Z,97834.09
2019-05-26T05:58:41.108Z,97839.47
2019-05-26T06:01:13.499Z,97840.89
2019-05-26T06:03:45.788Z,97835.88
2019-05-26T06:06:18.112Z,97834.76
2019-05-26T06:08:50.746Z,97838.12
2019-05-26T06:11:23.347Z,97838.02
2019-05-26T06:13:56.082Z,97838.61
2019-05-26T06:16:29.162Z,97837.73
2019-05-26T06:19:01.779Z,97843.69
2019-05-26T06:21:34.167Z,97838.66
2019-05-26T06:24:07.068Z,97843.33
2019-05-26T06:26:39.355Z,97839.55
2019-05-26T06:29:11.739Z,97835.45
2019-05-26T06:31:44.752Z,97838.48
2019-05-26T06:34:17.058Z,97841.28
2019-05-26T06:36:49.799Z,97837.92
2019-05-26T06:39:22.534Z,97838.21
2019-05-26T06:41:55.272Z,97837.55
2019-05-26T06:44:28.036Z,97834.28
2019-05-26T06:47:00.323Z,97843.29
2019-05-26T06:49:32.945Z,97841.20
2019-05-26T06:52:05.476Z,97844.67
2019-05-26T06:54:38.140Z,97843.76
2019-05-26T06:57:10.433Z,97843.96
2019-05-26T06:59:42.730Z,97840.98
2019-05-26T07:02:15.351Z,97842.61
2019-05-26T07:04:48.358Z,97843.55
2019-05-26T07:07:20.979Z,97838.67
2019-05-26T07:09:53.455Z,97839.23
2019-05-26T07:12:25.777Z,97838.15
2019-05-26T07:14:58.397Z,97833.95
2019-05-26T07:17:31.956Z,97835.00
2019-05-26T07:20:05.263Z,97842.77
2019-05-26T07:22:38.011Z,97844.58
2019-05-26T07:25:12.172Z,97845.05
2019-05-26T07:27:45.696Z,97846.42
2019-05-26T07:30:18.630Z,97842.45
2019-05-26T07:32:51.016Z,97842.47
2019-05-26T07:35:23.392Z,97840.55
2019-05-26T07:37:57.749Z,97837.67
2019-05-26T07:40:30.307Z,97839.31
2019-05-26T07:43:03.506Z,97834.80
2019-05-26T07:45:35.993Z,97829.97
2019-05-26T07:48:08.837Z,97838.45
2019-05-26T07:50:41.109Z,97832.73
2019-05-26T07:53:13.763Z,97829.67
2019-05-26T07:55:46.619Z,97830.98
2019-05-26T07:58:19.241Z,97827.97
2019-05-26T08:00:51.586Z,97825.53
2019-05-26T08:03:23.858Z,97825.38
2019-05-26T08:05:56.624Z,97823.23
2019-05-26T08:08:28.914Z,97818.84
2019-05-26T08:11:02.031Z,97818.00
2019-05-26T08:13:34.309Z,97821.26
2019-05-26T08:16:06.700Z,97822.88
2019-05-26T08:18:38.981Z,97820.09
2019-05-26T08:21:11.694Z,97821.81
2019-05-26T08:23:44.318Z,97812.13
2019-05-26T08:26:16.698Z,97812.75
2019-05-26T08:28:49.761Z,97805.39
2019-05-26T08:31:22.041Z,97802.70
2019-05-26T08:33:55.231Z,97807.19
2019-05-26T08:36:27.955Z,97800.33
2019-05-26T08:39:00.569Z,97798.03
2019-05-26T08:41:32.848Z,97796.86
2019-05-26T08:44:05.810Z,97792.60
2019-05-26T08:46:38.858Z,97790.83
2019-05-26T08:49:11.744Z,97792.25
2019-05-26T08:51:44.933Z,97787.42
2019-05-26T08:54:17.768Z,97789.77
2019-05-26T08:56:50.014Z,97793.75
2019-05-26T08:59:22.298Z,97792.33
2019-05-26T09:01:55.367Z,97788.24
2019-05-26T09:04:27.750Z,97783.42
2019-05-26T09:07:00.038Z,97780.50
2019-05-26T09:09:32.785Z,97780.06
2019-05-26T09:12:05.639Z,97782.22
2019-05-26T09:14:39.227Z,97779.36
2019-05-26T09:17:20.252Z,97778.27
2019-05-26T09:20:12.649Z,97776.00
2019-05-26T09:22:53.059Z,97783.31
2019-05-26T09:25:40.381Z,97778.45
2019-05-26T09:28:23.103Z,97784.27
2019-05-26T09:31:19.490Z,97774.05
2019-05-26T09:33:54.910Z,97774.75
2019-05-26T09:36:29.207Z,97774.67
2019-05-26T09:39:04.747Z,97768.04
2019-05-26T09:41:40.215Z,97772.32
2019-05-26T09:44:14.152Z,97767.52
2019-05-26T09:46:49.945Z,97768.87
2019-05-26T09:49:23.489Z,97768.13
2019-05-26T09:51:57.241Z,97764.50
2019-05-26T09:54:29.537Z,97761.33
2019-05-26T09:57:01.836Z,97758.84
2019-05-26T09:59:34.956Z,97759.91
2019-05-26T10:02:09.049Z,97751.88
2019-05-26T10:04:44.901Z,97748.91
2019-05-26T10:07:19.878Z,97750.77
2019-05-26T10:09:52.249Z,97743.41
2019-05-26T10:12:24.535Z,97744.17
2019-05-26T10:14:57.635Z,97742.37
2019-05-26T10:17:29.928Z,97737.02
2019-05-26T10:20:03.006Z,97736.53
2019-05-26T10:22:35.499Z,97737.06
2019-05-26T10:25:09.911Z,97733.61
2019-05-26T10:27:42.643Z,97730.30
2019-05-26T10:30:16.758Z,97724.48
2019-05-26T10:32:49.395Z,97728.14
2019-05-26T10:35:22.339Z,97729.65
2019-05-26T10:37:55.504Z,97732.33
2019-05-26T10:40:27.921Z,97732.22
2019-05-26T10:43:00.777Z,97720.47
2019-05-26T10:45:34.430Z,97719.88
2019-05-26T10:48:07.020Z,97717.88
2019-05-26T10:50:39.764Z,97717.44
2019-05-26T10:53:12.552Z,97717.12
2019-05-26T10:55:45.287Z,97709.70
2019-05-26T10:58:18.464Z,97704.66
2019-05-26T11:00:51.511Z,97699.45
2019-05-26T11:03:24.845Z,97695.69
2019-05-26T11:05:57.173Z,97697.30
2019-05-26T11:08:29.785Z,97691.90
2019-05-26T11:11:02.412Z,97686.64
2019-05-26T11:13:36.160Z,97688.36
2019-05-26T11:16:08.559Z,97683.14
2019-05-26T11:18:40.857Z,97677.60
2019-05-26T11:21:13.145Z,97677.38
2019-05-26T11:23:45.875Z,97676.19
2019-05-26T11:26:18.957Z,97674.95
2019-05-26T11:28:51.693Z,97672.13
2019-05-26T11:31:25.335Z,97673.63
2019-05-26T11:33:58.155Z,97658.31
2019-05-26T11:36:30.437Z,97663.86
2019-05-26T11:39:04.166Z,97657.97
2019-05-26T11:41:37.722Z,97658.93
2019-05-26T11:44:17.942Z,97661.51
2019-05-26T11:46:44.558Z,97665.73
2019-05-26T11:49:17.691Z,97655.58
2019-05-26T11:51:50.992Z,97648.81
2019-05-26T11:54:23.479Z,97645.18
2019-05-26T11:56:56.480Z,97641.45
2019-05-26T11:59:29.112Z,97642.84
2019-05-26T12:02:02.231Z,97649.42
2019-05-26T12:04:35.154Z,97640.74
2019-05-26T12:07:07.867Z,97635.53
2019-05-26T12:09:40.481Z,97631.41
2019-05-26T12:12:13.418Z,97626.33
2019-05-26T12:14:46.452Z,97618.30
2019-05-26T12:17:20.136Z,97619.87
2019-05-26T12:19:52.758Z,97610.81
2019-05-26T12:22:25.707Z,97611.72
2019-05-26T12:24:58.803Z,97608.05
2019-05-26T12:27:32.204Z,97601.51
2019-05-26T12:30:05.917Z,97598.62
2019-05-26T12:32:38.760Z,97598.87
2019-05-26T12:35:12.665Z,97597.06
2019-05-26T12:37:48.310Z,97597.08
2019-05-26T12:40:19.554Z,97593.37
2019-05-26T12:42:52.165Z,97592.35
2019-05-26T12:45:25.124Z,97594.44
2019-05-26T12:47:57.694Z,97582.02
2019-05-26T12:50:30.741Z,97580.41
2019-05-26T12:53:03.560Z,97580.20
2019-05-26T12:55:36.042Z,97574.47
2019-05-26T12:58:08.862Z,97570.90
2019-05-26T13:00:48.793Z,97576.29
2019-05-26T13:03:15.510Z,97580.17
2019-05-26T13:05:48.710Z,97576.89
2019-05-26T13:08:21.383Z,97572.55
2019-05-26T13:10:54.221Z,97575.09
2019-05-26T13:13:26.962Z,97566.83
2019-05-26T13:16:00.142Z,97560.82
2019-05-26T13:18:32.526Z,97559.61
2019-05-26T13:21:05.471Z,97555.55
2019-05-26T13:23:37.752Z,97547.55
2019-05-26T13:26:10.947Z,97547.48
2019-05-26T13:28:43.246Z,97545.42
2019-05-26T13:31:16.313Z,97540.98
2019-05-26T13:33:52.709Z,97537.58
2019-05-26T13:36:26.301Z,97534.81
2019-05-26T13:38:58.929Z,97531.86
2019-05-26T13:41:31.575Z,97532.55
2019-05-26T13:44:04.861Z,97532.27
2019-05-26T13:46:37.593Z,97528.58
2019-05-26T13:49:10.343Z,97534.85
2019-05-26T13:51:42.960Z,97536.62
2019-05-26T13:54:15.246Z,97527.94
2019-05-26T13:56:47.541Z,97517.61
2019-05-26T13:59:19.831Z,97518.50
2019-05-26T14:01:52.109Z,97526.89
2019-05-26T14:04:24.396Z,97526.39
2019-05-26T14:06:57.643Z,97530.72
2019-05-26T14:09:30.030Z,97530.24
2019-05-26T14:12:02.868Z,97533.11
2019-05-26T14:14:35.422Z,97526.94
2019-05-26T14:17:09.036Z,97526.80
2019-05-26T14:19:45.352Z,97521.53
2019-05-26T14:22:18.072Z,97525.30
2019-05-26T14:24:54.221Z,97522.55
2019-05-26T14:27:25.512Z,97519.85
2019-05-26T14:29:58.353Z,97514.72
2019-05-26T14:32:30.644Z,97521.92
2019-05-26T14:35:03.271Z,97518.70
2019-05-26T14:37:36.568Z,97507.08
2019-05-26T14:40:09.969Z,97502.38
2019-05-26T14:42:42.719Z,97499.23
2019-05-26T14:45:16.196Z,97504.03
2019-05-26T14:47:48.484Z,97499.64
2019-05-26T14:50:22.586Z,97500.59
2019-05-26T14:52:54.982Z,97496.78
2019-05-26T14:55:27.760Z,97501.28
2019-05-26T14:58:14.230Z,97498.56
2019-05-26T15:00:34.984Z,97499.61
2019-05-26T15:03:07.480Z,97494.83
2019-05-26T15:05:40.608Z,97488.08
2019-05-26T15:08:12.846Z,97487.58
2019-05-26T15:10:45.247Z,97494.05
2019-05-26T15:13:18.447Z,97495.86
2019-05-26T15:15:50.748Z,97489.14
2019-05-26T15:18:23.368Z,97489.75
2019-05-26T15:20:56.290Z,97492.26
2019-05-26T15:23:28.975Z,97488.95
2019-05-26T15:26:01.292Z,97483.81
2019-05-26T15:28:33.582Z,97477.86
2019-05-26T15:31:09.327Z,97478.42
2019-05-26T15:33:40.640Z,97482.88
2019-05-26T15:36:15.985Z,97485.31
2019-05-26T15:38:46.886Z,97483.69
2019-05-26T15:41:20.441Z,97484.27
2019-05-26T15:43:53.217Z,97477.63
2019-05-26T15:46:26.327Z,97476.83
2019-05-26T15:48:58.728Z,97472.73
2019-05-26T15:51:31.009Z,97473.42
2019-05-26T15:54:03.299Z,97468.94
2019-05-26T15:56:36.138Z,97461.30
2019-05-26T15:59:09.432Z,97466.87
2019-05-26T16:01:42.505Z,97462.36
2019-05-26T16:04:15.127Z,97458.17
2019-05-26T16:06:47.412Z,97458.73
2019-05-26T16:09:20.193Z,97455.48
2019-05-26T16:11:52.912Z,97452.27
2019-05-26T16:14:25.881Z,97452.25
2019-05-26T16:16:58.620Z,97452.49
2019-05-26T16:19:30.918Z,97449.78
2019-05-26T16:22:04.121Z,97442.25
2019-05-26T16:24:36.879Z,97442.27
2019-05-26T16:27:18.621Z,97447.41
2019-05-26T16:29:46.571Z,97447.25
2019-05-26T16:32:19.082Z,97436.58
2019-05-26T16:34:51.866Z,97447.16
2019-05-26T16:37:24.153Z,97448.55
2019-05-26T16:39:57.161Z,97443.84
2019-05-26T16:42:29.777Z,97441.91
2019-05-26T16:45:02.464Z,97443.84
2019-05-26T16:47:35.201Z,97437.57
2019-05-26T16:50:08.085Z,97441.12
2019-05-26T16:52:40.474Z,97444.41
2019-05-26T16:55:13.627Z,97446.30
2019-05-26T16:57:46.387Z,97434.33
2019-05-26T17:00:19.791Z,97435.03
2019-05-26T17:02:52.034Z,97431.50
2019-05-26T17:05:24.883Z,97436.55
2019-05-26T17:07:57.835Z,97428.20
2019-05-26T17:10:30.504Z,97427.59
2019-05-26T17:13:03.581Z,97430.78
2019-05-26T17:15:36.148Z,97436.36
2019-05-26T17:18:09.048Z,97437.83
2019-05-26T17:20:41.785Z,97437.63
2019-05-26T17:23:16.248Z,97440.68
2019-05-26T17:25:49.569Z,97443.68
2019-05-26T17:28:22.774Z,97446.83
2019-05-26T17:30:55.523Z,97444.25
2019-05-26T17:33:27.806Z,97444.75
2019-05-26T17:36:00.565Z,97440.52
2019-05-26T17:38:33.173Z,97439.75
2019-05-26T17:41:06.357Z,97439.20
2019-05-26T17:43:39.585Z,97441.67
2019-05-26T17:46:15.046Z,97438.84
2019-05-26T17:48:46.459Z,97429.55
2019-05-26T17:51:19.555Z,97431.84
2019-05-26T17:53:51.836Z,97432.44
2019-05-26T17:56:24.259Z,97430.48
2019-05-26T17:58:56.545Z,97432.22
2019-05-26T18:01:29.750Z,97431.64
2019-05-26T18:04:02.389Z,97428.39
2019-05-26T18:06:34.690Z,97429.73
2019-05-26T18:09:09.457Z,97433.30
2019-05-26T18:11:42.133Z,97426.86
2019-05-26T18:14:14.884Z,97427.16
2019-05-26T18:16:47.955Z,97421.39
2019-05-26T18:19:21.370Z,97420.84
2019-05-26T18:21:55.131Z,97417.37
2019-05-26T18:24:28.079Z,97412.25
2019-05-26T18:27:00.823Z,97413.33
2019-05-26T18:29:33.668Z,97406.77
2019-05-26T18:32:06.185Z,97407.69
2019-05-26T18:34:39.000Z,97405.19
2019-05-26T18:37:11.393Z,97403.64
2019-05-26T18:39:43.634Z,97410.09
2019-05-26T18:42:15.969Z,97411.16
2019-05-26T18:44:48.259Z,97410.44
2019-05-26T18:47:20.546Z,97412.31
2019-05-26T18:49:53.627Z,97409.19
2019-05-26T18:52:25.926Z,97406.77
2019-05-26T18:54:58.665Z,97411.34
2019-05-26T18:57:31.394Z,97412.42
2019-05-26T19:00:04.131Z,97408.53
2019-05-26T19:02:36.748Z,97411.36
2019-05-26T19:05:09.534Z,97414.14
2019-05-26T19:07:42.600Z,97414.03
2019-05-26T19:10:15.514Z,97419.63
2019-05-26T19:12:47.790Z,97418.44
2019-05-26T19:15:20.915Z,97418.52
2019-05-26T19:17:53.209Z,97419.52
2019-05-26T19:20:26.379Z,97419.53
2019-05-26T19:22:59.130Z,97420.52
2019-05-26T19:25:33.089Z,97416.81
2019-05-26T19:28:05.993Z,97425.61
2019-05-26T19:30:38.607Z,97423.76
2019-05-26T19:33:10.910Z,97423.80
2019-05-26T19:35:43.646Z,97424.63
2019-05-26T19:38:16.276Z,97425.01
2019-05-26T19:40:48.558Z,97431.34
2019-05-26T19:43:21.179Z,97434.27
2019-05-26T19:45:53.789Z,97439.98
2019-05-26T19:48:35.687Z,97440.31
2019-05-26T19:51:01.358Z,97437.23
2019-05-26T19:53:33.627Z,97439.86
2019-05-26T19:56:07.162Z,97442.13
2019-05-26T19:58:40.358Z,97442.95
2019-05-26T20:01:12.976Z,97441.04
2019-05-26T20:03:45.277Z,97444.59
2019-05-26T20:06:17.641Z,97442.50
2019-05-26T20:08:49.932Z,97437.48
2019-05-26T20:11:22.715Z,97437.50
2019-05-26T20:13:55.799Z,97441.72
2019-05-26T20:16:30.868Z,97442.20
2019-05-26T20:19:03.529Z,97442.34
2019-05-26T20:21:35.818Z,97440.68
2019-05-26T20:24:08.321Z,97442.30
2019-05-26T20:26:40.928Z,97444.39
2019-05-26T20:29:13.325Z,97447.45
2019-05-26T20:31:46.060Z,97445.66
2019-05-26T20:34:18.349Z,97445.09
2019-05-26T20:36:50.966Z,97442.94
2019-05-26T20:39:24.061Z,97447.64
2019-05-26T20:41:56.789Z,97443.07
2019-05-26T20:44:29.416Z,97447.59
2019-05-26T20:47:02.488Z,97446.55
2019-05-26T20:49:44.944Z,97445.52
2019-05-26T20:52:08.676Z,97443.50
2019-05-26T20:54:41.051Z,97441.34
2019-05-26T20:57:13.339Z,97440.01
2019-05-26T20:59:46.327Z,97440.92
2019-05-26T21:02:18.609Z,97440.05
2019-05-26T21:04:50.901Z,97441.55
2019-05-26T21:07:23.197Z,97436.66
2019-05-26T21:09:55.857Z,97442.13
2019-05-26T21:12:28.590Z,97441.02
2019-05-26T21:15:01.214Z,97437.78
2019-05-26T21:17:33.653Z,97439.61
2019-05-26T21:20:06.695Z,97442.06
2019-05-26T21:22:39.434Z,97439.92
2019-05-26T21:25:13.485Z,97442.20
2019-05-26T21:27:45.871Z,97444.84
2019-05-26T21:30:19.096Z,97440.52
2019-05-26T21:32:51.768Z,97433.11
2019-05-26T21:35:24.050Z,97431.59
2019-05-26T21:37:56.369Z,97435.39
2019-05-26T21:40:28.726Z,97432.96
2019-05-26T21:43:01.383Z,97437.08
2019-05-26T21:45:34.063Z,97439.09
2019-05-26T21:48:07.043Z,97437.12
2019-05-26T21:50:39.760Z,97437.46
2019-05-26T21:53:12.053Z,97440.89
2019-05-26T21:55:44.356Z,97445.13
2019-05-26T21:58:16.635Z,97439.00
2019-05-26T22:00:51.512Z,97440.47
2019-05-26T22:03:23.995Z,97440.29
2019-05-26T22:05:56.727Z,97437.73
2019-05-26T22:08:29.014Z,97440.13
2019-05-26T22:11:01.432Z,97443.43
2019-05-26T22:13:33.720Z,97441.53
2019-05-26T22:16:06.224Z,97446.40
2019-05-26T22:18:39.409Z,97441.59
2019-05-26T22:21:11.696Z,97443.69
2019-05-26T22:23:44.309Z,97445.83
2019-05-26T22:26:16.618Z,97442.98
2019-05-26T22:28:49.788Z,97441.89
2019-05-26T22:31:22.075Z,97438.08
2019-05-26T22:33:55.140Z,97437.00
2019-05-26T22:36:27.879Z,97437.99
2019-05-26T22:39:00.162Z,97438.63
2019-05-26T22:41:32.451Z,97435.35
2019-05-26T22:44:04.821Z,97436.63
2019-05-26T22:46:38.015Z,97437.65
2019-05-26T22:49:10.300Z,97438.64
2019-05-26T22:51:42.578Z,97438.45
2019-05-26T22:54:15.725Z,97432.92
2019-05-26T22:56:48.013Z,97433.88
2019-05-26T22:59:20.296Z,97430.81
2019-05-26T23:01:52.580Z,97430.33
2019-05-26T23:04:24.864Z,97427.09
2019-05-26T23:06:57.602Z,97429.04
2019-05-26T23:09:30.346Z,97432.27
2019-05-26T23:12:03.857Z,97434.48
2019-05-26T23:14:36.525Z,97430.58
2019-05-26T23:17:09.358Z,97431.54
2019-05-26T23:19:41.642Z,97427.59
2019-05-26T23:22:14.477Z,97425.91
2019-05-26T23:24:48.240Z,97427.82
2019-05-26T23:27:21.328Z,97428.16
2019-05-26T23:29:53.956Z,97423.00
2019-05-26T23:32:26.683Z,97419.93
2019-05-26T23:34:59.311Z,97422.08
2019-05-26T23:37:31.592Z,97423.84
2019-05-26T23:40:03.873Z,97420.62
2019-05-26T23:42:37.051Z,97422.39
2019-05-26T23:45:11.447Z,97413.87
2019-05-26T23:47:44.160Z,97414.88
2019-05-26T23:50:18.289Z,97413.10
2019-05-26T23:52:51.481Z,97411.97
2019-05-26T23:55:23.761Z,97411.87
2019-05-26T23:57:56.379Z,97410.89
